sensor_id;sensor_type;location;lat;lon;timestamp;P1;durP1;ratioP1;P2;durP2;ratioP2
20792;SDS011;10556;-33.662;151.094;2023-05-06T00:03:11;2.37;;;0.90;;
20792;SDS011;10556;-33.662;151.094;2023-05-06T00:08:12;3.27;;;1.10;;
20792;SDS011;10556;-33.662;151.094;2023-05-06T00:13:13;1.90;;;0.83;;
20792;SDS011;10556;-33.662;151.094;2023-05-06T00:18:17;1.90;;;0.90;;
20792;SDS011;10556;-33.662;151.094;2023-05-06T00:23:18;2.20;;;0.83;;
20792;SDS011;10556;-33.662;151.094;2023-05-06T00:28:19;2.93;;;0.87;;
20792;SDS011;10556;-33.662;151.094;2023-05-06T00:33:22;1.63;;;0.50;;
20792;SDS011;10556;-33.662;151.094;2023-05-06T00:38:23;0.97;;;0.40;;
20792;SDS011;10556;-33.662;151.094;2023-05-06T00:43:25;2.20;;;0.57;;
20792;SDS011;10556;-33.662;151.094;2023-05-06T00:48:28;1.67;;;0.70;;
20792;SDS011;10556;-33.662;151.094;2023-05-06T00:53:29;2.07;;;0.50;;
20792;SDS011;10556;-33.662;151.094;2023-05-06T00:58:30;1.03;;;0.50;;
20792;SDS011;10556;-33.662;151.094;2023-05-06T01:03:34;1.70;;;0.40;;
20792;SDS011;10556;-33.662;151.094;2023-05-06T01:08:36;2.60;;;0.57;;
20792;SDS011;10556;-33.662;151.094;2023-05-06T01:13:46;1.27;;;0.60;;
20792;SDS011;10556;-33.662;151.094;2023-05-06T01:18:50;1.63;;;0.60;;
20792;SDS011;10556;-33.662;151.094;2023-05-06T01:23:54;2.27;;;0.70;;
20792;SDS011;10556;-33.662;151.094;2023-05-06T01:28:56;2.83;;;0.80;;
20792;SDS011;10556;-33.662;151.094;2023-05-06T01:34:01;2.20;;;0.87;;
20792;SDS011;10556;-33.662;151.094;2023-05-06T01:39:11;1.00;;;0.53;;
20792;SDS011;10556;-33.662;151.094;2023-05-06T01:44:12;1.93;;;0.80;;
20792;SDS011;10556;-33.662;151.094;2023-05-06T01:49:14;2.03;;;0.90;;
20792;SDS011;10556;-33.662;151.094;2023-05-06T01:54:18;1.60;;;0.80;;
20792;SDS011;10556;-33.662;151.094;2023-05-06T01:59:19;1.60;;;0.90;;
20792;SDS011;10556;-33.662;151.094;2023-05-06T02:04:21;1.13;;;0.80;;
20792;SDS011;10556;-33.662;151.094;2023-05-06T02:09:24;1.90;;;0.90;;
20792;SDS011;10556;-33.662;151.094;2023-05-06T02:14:25;2.47;;;1.03;;
20792;SDS011;10556;-33.662;151.094;2023-05-06T02:19:26;2.07;;;0.80;;
20792;SDS011;10556;-33.662;151.094;2023-05-06T02:24:29;2.20;;;1.10;;
20792;SDS011;10556;-33.662;151.094;2023-05-06T02:29:31;1.87;;;0.70;;
20792;SDS011;10556;-33.662;151.094;2023-05-06T02:34:32;2.97;;;0.90;;
20792;SDS011;10556;-33.662;151.094;2023-05-06T02:39:35;3.33;;;0.67;;
20792;SDS011;10556;-33.662;151.094;2023-05-06T02:44:36;1.50;;;0.60;;
20792;SDS011;10556;-33.662;151.094;2023-05-06T02:49:38;2.47;;;1.07;;
20792;SDS011;10556;-33.662;151.094;2023-05-06T02:54:41;2.90;;;0.70;;
20792;SDS011;10556;-33.662;151.094;2023-05-06T02:59:42;2.47;;;0.73;;
20792;SDS011;10556;-33.662;151.094;2023-05-06T03:04:43;1.10;;;1.00;;
20792;SDS011;10556;-33.662;151.094;2023-05-06T03:09:46;0.67;;;0.50;;
20792;SDS011;10556;-33.662;151.094;2023-05-06T03:14:47;2.20;;;0.87;;
20792;SDS011;10556;-33.662;151.094;2023-05-06T03:19:49;3.40;;;1.20;;
20792;SDS011;10556;-33.662;151.094;2023-05-06T03:24:52;2.17;;;1.10;;
20792;SDS011;10556;-33.662;151.094;2023-05-06T03:29:53;2.43;;;0.90;;
20792;SDS011;10556;-33.662;151.094;2023-05-06T03:34:54;1.43;;;0.70;;
20792;SDS011;10556;-33.662;151.094;2023-05-06T03:39:57;1.37;;;1.00;;
20792;SDS011;10556;-33.662;151.094;2023-05-06T03:44:59;2.23;;;0.90;;
20792;SDS011;10556;-33.662;151.094;2023-05-06T03:50:00;1.50;;;1.03;;
20792;SDS011;10556;-33.662;151.094;2023-05-06T03:55:03;1.73;;;0.70;;
20792;SDS011;10556;-33.662;151.094;2023-05-06T04:00:05;1.50;;;0.90;;
20792;SDS011;10556;-33.662;151.094;2023-05-06T04:05:06;1.97;;;0.90;;
20792;SDS011;10556;-33.662;151.094;2023-05-06T04:10:10;2.07;;;0.77;;
20792;SDS011;10556;-33.662;151.094;2023-05-06T04:15:11;1.20;;;1.00;;
20792;SDS011;10556;-33.662;151.094;2023-05-06T04:20:12;1.37;;;1.10;;
20792;SDS011;10556;-33.662;151.094;2023-05-06T04:25:16;1.60;;;0.73;;
20792;SDS011;10556;-33.662;151.094;2023-05-06T04:30:17;1.87;;;0.83;;
20792;SDS011;10556;-33.662;151.094;2023-05-06T04:35:18;1.70;;;0.87;;
20792;SDS011;10556;-33.662;151.094;2023-05-06T04:40:21;1.43;;;0.90;;
20792;SDS011;10556;-33.662;151.094;2023-05-06T04:45:23;1.03;;;0.80;;
20792;SDS011;10556;-33.662;151.094;2023-05-06T04:50:24;2.10;;;0.70;;
20792;SDS011;10556;-33.662;151.094;2023-05-06T04:55:27;2.20;;;1.00;;
20792;SDS011;10556;-33.662;151.094;2023-05-06T05:00:28;2.80;;;1.10;;
20792;SDS011;10556;-33.662;151.094;2023-05-06T05:05:32;1.17;;;0.90;;
20792;SDS011;10556;-33.662;151.094;2023-05-06T05:10:35;1.67;;;0.90;;
20792;SDS011;10556;-33.662;151.094;2023-05-06T05:15:36;4.93;;;4.43;;
20792;SDS011;10556;-33.662;151.094;2023-05-06T05:20:37;2.93;;;2.53;;
20792;SDS011;10556;-33.662;151.094;2023-05-06T05:25:40;2.03;;;1.17;;
20792;SDS011;10556;-33.662;151.094;2023-05-06T05:30:42;1.73;;;1.00;;
20792;SDS011;10556;-33.662;151.094;2023-05-06T05:35:43;1.57;;;1.00;;
20792;SDS011;10556;-33.662;151.094;2023-05-06T05:40:46;1.57;;;0.70;;
20792;SDS011;10556;-33.662;151.094;2023-05-06T05:45:47;1.13;;;0.70;;
20792;SDS011;10556;-33.662;151.094;2023-05-06T05:50:49;2.57;;;1.07;;
20792;SDS011;10556;-33.662;151.094;2023-05-06T05:55:52;1.90;;;0.73;;
20792;SDS011;10556;-33.662;151.094;2023-05-06T06:00:53;0.80;;;0.60;;
20792;SDS011;10556;-33.662;151.094;2023-05-06T06:05:54;2.60;;;1.07;;
20792;SDS011;10556;-33.662;151.094;2023-05-06T06:10:57;1.13;;;0.67;;
20792;SDS011;10556;-33.662;151.094;2023-05-06T06:15:58;1.70;;;0.73;;
20792;SDS011;10556;-33.662;151.094;2023-05-06T06:21:00;1.20;;;0.67;;
20792;SDS011;10556;-33.662;151.094;2023-05-06T06:26:03;3.13;;;0.80;;
20792;SDS011;10556;-33.662;151.094;2023-05-06T06:31:04;1.30;;;0.80;;
20792;SDS011;10556;-33.662;151.094;2023-05-06T06:36:06;1.70;;;0.90;;
20792;SDS011;10556;-33.662;151.094;2023-05-06T06:41:09;1.30;;;0.83;;
20792;SDS011;10556;-33.662;151.094;2023-05-06T06:46:10;2.37;;;0.70;;
20792;SDS011;10556;-33.662;151.094;2023-05-06T06:51:12;1.00;;;0.80;;
20792;SDS011;10556;-33.662;151.094;2023-05-06T06:56:15;1.57;;;0.80;;
20792;SDS011;10556;-33.662;151.094;2023-05-06T07:01:16;2.10;;;0.63;;
20792;SDS011;10556;-33.662;151.094;2023-05-06T07:06:17;1.20;;;0.90;;
20792;SDS011;10556;-33.662;151.094;2023-05-06T07:11:20;2.37;;;0.83;;
20792;SDS011;10556;-33.662;151.094;2023-05-06T07:16:21;0.90;;;0.70;;
20792;SDS011;10556;-33.662;151.094;2023-05-06T07:21:23;1.10;;;1.00;;
20792;SDS011;10556;-33.662;151.094;2023-05-06T07:26:26;1.40;;;1.07;;
20792;SDS011;10556;-33.662;151.094;2023-05-06T07:31:27;2.10;;;1.10;;
20792;SDS011;10556;-33.662;151.094;2023-05-06T07:36:28;1.73;;;1.33;;
20792;SDS011;10556;-33.662;151.094;2023-05-06T07:41:32;1.10;;;0.80;;
20792;SDS011;10556;-33.662;151.094;2023-05-06T07:46:33;2.67;;;0.90;;
20792;SDS011;10556;-33.662;151.094;2023-05-06T07:51:35;1.30;;;0.90;;
20792;SDS011;10556;-33.662;151.094;2023-05-06T07:56:38;29.63;;;15.50;;
20792;SDS011;10556;-33.662;151.094;2023-05-06T08:01:39;8.70;;;5.30;;
20792;SDS011;10556;-33.662;151.094;2023-05-06T08:06:40;8.77;;;4.27;;
20792;SDS011;10556;-33.662;151.094;2023-05-06T08:11:44;8.60;;;4.97;;
20792;SDS011;10556;-33.662;151.094;2023-05-06T08:16:45;5.60;;;3.73;;
20792;SDS011;10556;-33.662;151.094;2023-05-06T08:21:46;4.97;;;2.63;;
20792;SDS011;10556;-33.662;151.094;2023-05-06T08:26:49;3.87;;;2.80;;
20792;SDS011;10556;-33.662;151.094;2023-05-06T08:31:51;5.20;;;2.33;;
20792;SDS011;10556;-33.662;151.094;2023-05-06T08:36:52;4.13;;;1.87;;
20792;SDS011;10556;-33.662;151.094;2023-05-06T08:41:55;2.23;;;1.60;;
20792;SDS011;10556;-33.662;151.094;2023-05-06T08:46:57;3.23;;;2.20;;
20792;SDS011;10556;-33.662;151.094;2023-05-06T08:51:59;7.63;;;3.97;;
20792;SDS011;10556;-33.662;151.094;2023-05-06T08:57:05;3.97;;;2.37;;
20792;SDS011;10556;-33.662;151.094;2023-05-06T09:02:09;2.17;;;1.83;;
20792;SDS011;10556;-33.662;151.094;2023-05-06T09:07:11;2.70;;;1.50;;
20792;SDS011;10556;-33.662;151.094;2023-05-06T09:12:14;1.87;;;1.30;;
20792;SDS011;10556;-33.662;151.094;2023-05-06T09:17:19;4.07;;;1.80;;
20792;SDS011;10556;-33.662;151.094;2023-05-06T09:22:20;3.33;;;1.60;;
20792;SDS011;10556;-33.662;151.094;2023-05-06T09:27:24;2.63;;;1.53;;
20792;SDS011;10556;-33.662;151.094;2023-05-06T09:32:25;2.17;;;1.10;;
20792;SDS011;10556;-33.662;151.094;2023-05-06T09:37:27;3.63;;;1.10;;
20792;SDS011;10556;-33.662;151.094;2023-05-06T09:42:30;3.83;;;1.50;;
20792;SDS011;10556;-33.662;151.094;2023-05-06T09:47:32;11.60;;;4.10;;
20792;SDS011;10556;-33.662;151.094;2023-05-06T09:52:33;5.17;;;3.03;;
20792;SDS011;10556;-33.662;151.094;2023-05-06T09:57:36;3.87;;;1.90;;
20792;SDS011;10556;-33.662;151.094;2023-05-06T10:02:38;1.80;;;1.43;;
20792;SDS011;10556;-33.662;151.094;2023-05-06T10:07:40;3.10;;;1.30;;
20792;SDS011;10556;-33.662;151.094;2023-05-06T10:12:43;3.70;;;1.47;;
20792;SDS011;10556;-33.662;151.094;2023-05-06T10:17:44;5.70;;;1.87;;
20792;SDS011;10556;-33.662;151.094;2023-05-06T10:22:49;4.30;;;1.50;;
20792;SDS011;10556;-33.662;151.094;2023-05-06T10:27:54;3.40;;;1.60;;
20792;SDS011;10556;-33.662;151.094;2023-05-06T10:32:55;3.20;;;1.33;;
20792;SDS011;10556;-33.662;151.094;2023-05-06T10:37:57;1.87;;;1.00;;
20792;SDS011;10556;-33.662;151.094;2023-05-06T10:48:19;17.17;;;9.07;;
20792;SDS011;10556;-33.662;151.094;2023-05-06T10:53:35;18.90;;;8.07;;
20792;SDS011;10556;-33.662;151.094;2023-05-06T10:58:55;8.63;;;4.43;;
20792;SDS011;10556;-33.662;151.094;2023-05-06T11:03:58;5.73;;;3.83;;
20792;SDS011;10556;-33.662;151.094;2023-05-06T11:09:14;10.87;;;8.70;;
20792;SDS011;10556;-33.662;151.094;2023-05-06T11:14:23;6.53;;;5.10;;
20792;SDS011;10556;-33.662;151.094;2023-05-06T11:19:27;6.17;;;4.67;;
20792;SDS011;10556;-33.662;151.094;2023-05-06T11:24:29;5.27;;;3.30;;
20792;SDS011;10556;-33.662;151.094;2023-05-06T11:29:30;10.00;;;6.30;;
20792;SDS011;10556;-33.662;151.094;2023-05-06T11:34:33;8.27;;;4.23;;
20792;SDS011;10556;-33.662;151.094;2023-05-06T11:39:35;7.23;;;4.00;;
20792;SDS011;10556;-33.662;151.094;2023-05-06T11:44:36;6.77;;;3.13;;
20792;SDS011;10556;-33.662;151.094;2023-05-06T11:49:40;8.17;;;3.93;;
20792;SDS011;10556;-33.662;151.094;2023-05-06T11:54:42;5.20;;;2.37;;
20792;SDS011;10556;-33.662;151.094;2023-05-06T11:59:43;3.07;;;1.50;;
20792;SDS011;10556;-33.662;151.094;2023-05-06T12:04:47;2.47;;;1.50;;
20792;SDS011;10556;-33.662;151.094;2023-05-06T12:09:48;1.90;;;1.37;;
20792;SDS011;10556;-33.662;151.094;2023-05-06T12:14:50;1.60;;;1.20;;
20792;SDS011;10556;-33.662;151.094;2023-05-06T12:19:54;2.67;;;1.10;;
20792;SDS011;10556;-33.662;151.094;2023-05-06T12:24:55;2.07;;;1.37;;
20792;SDS011;10556;-33.662;151.094;2023-05-06T12:29:57;1.70;;;1.20;;
20792;SDS011;10556;-33.662;151.094;2023-05-06T12:35:00;3.73;;;1.57;;
20792;SDS011;10556;-33.662;151.094;2023-05-06T12:40:02;2.73;;;2.00;;
20792;SDS011;10556;-33.662;151.094;2023-05-06T12:45:13;2.93;;;1.70;;
20792;SDS011;10556;-33.662;151.094;2023-05-06T12:50:25;10.40;;;5.77;;
20792;SDS011;10556;-33.662;151.094;2023-05-06T12:55:30;20.70;;;11.67;;
20792;SDS011;10556;-33.662;151.094;2023-05-06T13:00:34;15.03;;;10.83;;
20792;SDS011;10556;-33.662;151.094;2023-05-06T13:05:37;8.60;;;5.53;;
20792;SDS011;10556;-33.662;151.094;2023-05-06T13:10:38;10.60;;;7.07;;
20792;SDS011;10556;-33.662;151.094;2023-05-06T13:15:42;11.13;;;6.87;;
20792;SDS011;10556;-33.662;151.094;2023-05-06T13:20:45;10.57;;;7.20;;
20792;SDS011;10556;-33.662;151.094;2023-05-06T13:25:47;4.87;;;3.77;;
20792;SDS011;10556;-33.662;151.094;2023-05-06T13:30:51;4.60;;;2.83;;
20792;SDS011;10556;-33.662;151.094;2023-05-06T13:35:54;5.17;;;2.70;;
20792;SDS011;10556;-33.662;151.094;2023-05-06T13:40:56;3.13;;;1.90;;
20792;SDS011;10556;-33.662;151.094;2023-05-06T13:45:57;2.30;;;1.70;;
20792;SDS011;10556;-33.662;151.094;2023-05-06T13:51:00;4.37;;;2.03;;
20792;SDS011;10556;-33.662;151.094;2023-05-06T13:56:02;2.67;;;1.90;;
20792;SDS011;10556;-33.662;151.094;2023-05-06T14:01:03;4.50;;;2.17;;
20792;SDS011;10556;-33.662;151.094;2023-05-06T14:06:07;5.90;;;2.53;;
20792;SDS011;10556;-33.662;151.094;2023-05-06T14:11:08;4.90;;;3.00;;
20792;SDS011;10556;-33.662;151.094;2023-05-06T14:16:09;4.80;;;2.57;;
20792;SDS011;10556;-33.662;151.094;2023-05-06T14:21:13;4.47;;;2.90;;
20792;SDS011;10556;-33.662;151.094;2023-05-06T14:26:14;5.60;;;2.70;;
20792;SDS011;10556;-33.662;151.094;2023-05-06T14:31:15;5.40;;;2.93;;
20792;SDS011;10556;-33.662;151.094;2023-05-06T14:36:19;5.33;;;2.70;;
20792;SDS011;10556;-33.662;151.094;2023-05-06T14:41:20;4.97;;;2.60;;
20792;SDS011;10556;-33.662;151.094;2023-05-06T14:46:24;5.87;;;3.23;;
20792;SDS011;10556;-33.662;151.094;2023-05-06T14:51:27;4.77;;;2.60;;
20792;SDS011;10556;-33.662;151.094;2023-05-06T14:56:29;4.37;;;2.70;;
20792;SDS011;10556;-33.662;151.094;2023-05-06T15:01:33;5.57;;;3.03;;
20792;SDS011;10556;-33.662;151.094;2023-05-06T15:06:36;2.73;;;2.07;;
20792;SDS011;10556;-33.662;151.094;2023-05-06T15:11:37;3.90;;;2.80;;
20792;SDS011;10556;-33.662;151.094;2023-05-06T15:16:39;5.03;;;2.50;;
20792;SDS011;10556;-33.662;151.094;2023-05-06T15:21:42;6.67;;;2.73;;
20792;SDS011;10556;-33.662;151.094;2023-05-06T15:26:43;3.87;;;2.80;;
20792;SDS011;10556;-33.662;151.094;2023-05-06T15:31:45;5.10;;;3.13;;
20792;SDS011;10556;-33.662;151.094;2023-05-06T15:36:50;5.97;;;3.17;;
20792;SDS011;10556;-33.662;151.094;2023-05-06T15:41:52;4.70;;;2.93;;
20792;SDS011;10556;-33.662;151.094;2023-05-06T15:46:53;4.20;;;2.93;;
20792;SDS011;10556;-33.662;151.094;2023-05-06T15:51:56;6.70;;;3.57;;
20792;SDS011;10556;-33.662;151.094;2023-05-06T15:56:57;4.97;;;2.80;;
20792;SDS011;10556;-33.662;151.094;2023-05-06T16:01:59;7.50;;;3.57;;
20792;SDS011;10556;-33.662;151.094;2023-05-06T16:07:02;6.23;;;3.07;;
20792;SDS011;10556;-33.662;151.094;2023-05-06T16:12:04;5.13;;;3.17;;
20792;SDS011;10556;-33.662;151.094;2023-05-06T16:17:05;4.77;;;2.83;;
20792;SDS011;10556;-33.662;151.094;2023-05-06T16:22:09;7.17;;;3.23;;
20792;SDS011;10556;-33.662;151.094;2023-05-06T16:27:10;5.30;;;3.07;;
20792;SDS011;10556;-33.662;151.094;2023-05-06T16:32:11;5.30;;;2.73;;
20792;SDS011;10556;-33.662;151.094;2023-05-06T16:37:14;4.00;;;2.63;;
20792;SDS011;10556;-33.662;151.094;2023-05-06T16:42:15;5.37;;;3.27;;
20792;SDS011;10556;-33.662;151.094;2023-05-06T16:47:17;3.57;;;2.53;;
20792;SDS011;10556;-33.662;151.094;2023-05-06T16:52:20;4.13;;;2.90;;
20792;SDS011;10556;-33.662;151.094;2023-05-06T16:57:21;9.03;;;3.27;;
20792;SDS011;10556;-33.662;151.094;2023-05-06T17:02:22;5.47;;;3.00;;
20792;SDS011;10556;-33.662;151.094;2023-05-06T17:07:26;4.87;;;2.77;;
20792;SDS011;10556;-33.662;151.094;2023-05-06T17:12:27;5.47;;;1.97;;
20792;SDS011;10556;-33.662;151.094;2023-05-06T17:17:28;3.17;;;1.73;;
20792;SDS011;10556;-33.662;151.094;2023-05-06T17:22:31;3.97;;;2.50;;
20792;SDS011;10556;-33.662;151.094;2023-05-06T17:27:33;2.97;;;2.13;;
20792;SDS011;10556;-33.662;151.094;2023-05-06T17:32:34;4.33;;;2.23;;
20792;SDS011;10556;-33.662;151.094;2023-05-06T17:37:37;4.53;;;2.70;;
20792;SDS011;10556;-33.662;151.094;2023-05-06T17:42:38;8.30;;;3.00;;
20792;SDS011;10556;-33.662;151.094;2023-05-06T17:47:40;4.50;;;2.30;;
20792;SDS011;10556;-33.662;151.094;2023-05-06T17:52:44;5.80;;;2.37;;
20792;SDS011;10556;-33.662;151.094;2023-05-06T17:57:46;3.67;;;2.40;;
20792;SDS011;10556;-33.662;151.094;2023-05-06T18:02:47;3.77;;;2.30;;
20792;SDS011;10556;-33.662;151.094;2023-05-06T18:07:50;7.37;;;2.87;;
20792;SDS011;10556;-33.662;151.094;2023-05-06T18:12:52;7.07;;;3.13;;
20792;SDS011;10556;-33.662;151.094;2023-05-06T18:17:53;6.03;;;2.70;;
20792;SDS011;10556;-33.662;151.094;2023-05-06T18:22:56;5.53;;;2.90;;
20792;SDS011;10556;-33.662;151.094;2023-05-06T18:27:58;7.27;;;2.97;;
20792;SDS011;10556;-33.662;151.094;2023-05-06T18:32:59;3.90;;;2.70;;
20792;SDS011;10556;-33.662;151.094;2023-05-06T18:38:02;6.10;;;2.97;;
20792;SDS011;10556;-33.662;151.094;2023-05-06T18:43:03;4.97;;;2.67;;
20792;SDS011;10556;-33.662;151.094;2023-05-06T18:48:04;4.37;;;2.07;;
20792;SDS011;10556;-33.662;151.094;2023-05-06T18:53:07;3.37;;;1.97;;
20792;SDS011;10556;-33.662;151.094;2023-05-06T18:58:09;2.17;;;1.80;;
20792;SDS011;10556;-33.662;151.094;2023-05-06T19:03:10;3.47;;;2.00;;
20792;SDS011;10556;-33.662;151.094;2023-05-06T19:08:13;4.60;;;2.43;;
20792;SDS011;10556;-33.662;151.094;2023-05-06T19:13:14;3.67;;;1.63;;
20792;SDS011;10556;-33.662;151.094;2023-05-06T19:18:16;4.07;;;1.53;;
20792;SDS011;10556;-33.662;151.094;2023-05-06T19:23:19;2.73;;;1.30;;
20792;SDS011;10556;-33.662;151.094;2023-05-06T19:28:20;2.30;;;1.73;;
20792;SDS011;10556;-33.662;151.094;2023-05-06T19:33:21;2.43;;;1.00;;
20792;SDS011;10556;-33.662;151.094;2023-05-06T19:38:24;3.23;;;1.30;;
20792;SDS011;10556;-33.662;151.094;2023-05-06T19:43:26;1.57;;;1.10;;
20792;SDS011;10556;-33.662;151.094;2023-05-06T19:48:27;2.47;;;0.90;;
20792;SDS011;10556;-33.662;151.094;2023-05-06T19:53:30;4.03;;;0.90;;
20792;SDS011;10556;-33.662;151.094;2023-05-06T19:58:32;1.87;;;0.70;;
20792;SDS011;10556;-33.662;151.094;2023-05-06T20:03:33;2.37;;;0.70;;
20792;SDS011;10556;-33.662;151.094;2023-05-06T20:08:36;1.73;;;0.97;;
20792;SDS011;10556;-33.662;151.094;2023-05-06T20:13:38;3.03;;;1.13;;
20792;SDS011;10556;-33.662;151.094;2023-05-06T20:18:39;0.80;;;0.70;;
20792;SDS011;10556;-33.662;151.094;2023-05-06T20:23:42;1.70;;;0.70;;
20792;SDS011;10556;-33.662;151.094;2023-05-06T20:28:43;1.90;;;0.70;;
20792;SDS011;10556;-33.662;151.094;2023-05-06T20:33:44;3.13;;;0.80;;
20792;SDS011;10556;-33.662;151.094;2023-05-06T20:38:48;0.70;;;0.50;;
20792;SDS011;10556;-33.662;151.094;2023-05-06T20:43:50;2.93;;;0.70;;
20792;SDS011;10556;-33.662;151.094;2023-05-06T20:48:51;2.13;;;0.60;;
20792;SDS011;10556;-33.662;151.094;2023-05-06T20:53:55;1.13;;;0.60;;
20792;SDS011;10556;-33.662;151.094;2023-05-06T20:58:56;1.77;;;0.70;;
20792;SDS011;10556;-33.662;151.094;2023-05-06T21:03:58;1.47;;;0.40;;
20792;SDS011;10556;-33.662;151.094;2023-05-06T21:09:01;2.00;;;0.40;;
20792;SDS011;10556;-33.662;151.094;2023-05-06T21:14:02;1.67;;;0.70;;
20792;SDS011;10556;-33.662;151.094;2023-05-06T21:19:03;1.27;;;0.60;;
20792;SDS011;10556;-33.662;151.094;2023-05-06T21:24:07;1.50;;;0.63;;
20792;SDS011;10556;-33.662;151.094;2023-05-06T21:29:08;0.93;;;0.60;;
20792;SDS011;10556;-33.662;151.094;2023-05-06T21:34:09;1.33;;;0.50;;
20792;SDS011;10556;-33.662;151.094;2023-05-06T21:39:12;1.07;;;0.43;;
20792;SDS011;10556;-33.662;151.094;2023-05-06T21:44:13;1.23;;;0.50;;
20792;SDS011;10556;-33.662;151.094;2023-05-06T21:49:15;1.43;;;0.70;;
20792;SDS011;10556;-33.662;151.094;2023-05-06T21:54:18;1.93;;;0.70;;
20792;SDS011;10556;-33.662;151.094;2023-05-06T21:59:19;1.43;;;0.70;;
20792;SDS011;10556;-33.662;151.094;2023-05-06T22:04:21;1.70;;;0.53;;
20792;SDS011;10556;-33.662;151.094;2023-05-06T22:09:24;2.87;;;0.70;;
20792;SDS011;10556;-33.662;151.094;2023-05-06T22:14:25;1.80;;;0.50;;
20792;SDS011;10556;-33.662;151.094;2023-05-06T22:19:26;0.90;;;0.50;;
20792;SDS011;10556;-33.662;151.094;2023-05-06T22:24:29;1.50;;;0.60;;
20792;SDS011;10556;-33.662;151.094;2023-05-06T22:29:31;1.80;;;0.60;;
20792;SDS011;10556;-33.662;151.094;2023-05-06T22:34:32;1.47;;;0.53;;
20792;SDS011;10556;-33.662;151.094;2023-05-06T22:39:35;1.03;;;0.50;;
20792;SDS011;10556;-33.662;151.094;2023-05-06T22:44:36;0.93;;;0.60;;
20792;SDS011;10556;-33.662;151.094;2023-05-06T22:49:37;0.60;;;0.50;;
20792;SDS011;10556;-33.662;151.094;2023-05-06T22:54:40;0.97;;;0.40;;
20792;SDS011;10556;-33.662;151.094;2023-05-06T22:59:42;0.73;;;0.30;;
20792;SDS011;10556;-33.662;151.094;2023-05-06T23:04:43;3.80;;;0.57;;
20792;SDS011;10556;-33.662;151.094;2023-05-06T23:09:46;0.60;;;0.50;;
20792;SDS011;10556;-33.662;151.094;2023-05-06T23:14:47;0.30;;;0.30;;
20792;SDS011;10556;-33.662;151.094;2023-05-06T23:19:49;1.10;;;0.57;;
20792;SDS011;10556;-33.662;151.094;2023-05-06T23:24:52;2.37;;;0.60;;
20792;SDS011;10556;-33.662;151.094;2023-05-06T23:29:53;1.30;;;0.67;;
20792;SDS011;10556;-33.662;151.094;2023-05-06T23:34:54;1.43;;;0.90;;
20792;SDS011;10556;-33.662;151.094;2023-05-06T23:39:57;2.80;;;1.47;;
20792;SDS011;10556;-33.662;151.094;2023-05-06T23:44:58;4.17;;;1.90;;
20792;SDS011;10556;-33.662;151.094;2023-05-06T23:50:00;5.07;;;2.77;;
20792;SDS011;10556;-33.662;151.094;2023-05-06T23:55:03;4.13;;;1.97;;
